S-RH(METAR)
02/18 15:00
METAR S-RH 180600Z 17003KT 9999 FEW030 BKN120 11/M04 Q1022 RMK
1CU030 7AC120 A3020=
戻る
トップページへ戻る
IMOC Co,.Ltd.